Time;durP1;ratioP1;P1;durP2;ratioP2;P2;SDS_P1;SDS_P2;PMS_P1;PMS_P2;Temp;Humidity;BMP_temperature;BMP_pressure;BME280_temperature;BME280_humidity;BME280_pressure;Samples;Min_cycle;Max_cycle;Signal;HPM_P1;HPM_P2
2021/12/25 00:02:20;;;;;;;9.90;3.67;;;0.30;99.90;;;;;;5020756;28;20087;-82
2021/12/25 00:04:47;;;;;;;11.40;4.10;;;0.30;99.90;;;;;;5001826;28;20041;-82
2021/12/25 00:07:13;;;;;;;8.65;5.97;;;0.20;99.90;;;;;;5017336;28;20044;-82
2021/12/25 00:09:39;;;;;;;5.30;2.65;;;0.20;99.90;;;;;;5018501;28;20048;-81
2021/12/25 00:12:06;;;;;;;7.97;3.05;;;0.20;99.90;;;;;;5044424;28;20044;-82
2021/12/25 00:14:32;;;;;;;8.95;4.72;;;0.30;99.90;;;;;;5051203;28;20051;-81
2021/12/25 00:17:00;;;;;;;5.70;1.90;;;0.30;99.90;;;;;;5028890;28;20049;-81
2021/12/25 00:19:26;;;;;;;5.18;1.90;;;0.30;99.90;;;;;;5018710;28;20054;-81
2021/12/25 00:21:53;;;;;;;10.10;4.22;;;0.30;99.90;;;;;;5046241;28;20041;-82
2021/12/25 00:24:19;;;;;;;8.88;2.28;;;0.30;99.90;;;;;;5038909;28;20504;-82
2021/12/25 00:26:54;;;;;;;5.75;2.30;;;0.30;99.90;;;;;;5034480;28;20106;-82
2021/12/25 00:29:38;;;;;;;4.97;1.83;;;0.20;99.90;;;;;;5018419;28;20045;-81
2021/12/25 00:32:15;;;;;;;6.32;3.17;;;0.20;99.90;;;;;;5044236;28;20480;-82
2021/12/25 00:34:41;;;;;;;7.20;2.60;;;0.10;99.90;;;;;;5048046;28;20412;-82
2021/12/25 00:37:08;;;;;;;6.30;2.50;;;0.10;99.90;;;;;;5037740;28;20044;-82
2021/12/25 00:39:36;;;;;;;3.72;1.70;;;0.10;99.90;;;;;;5051001;28;20048;-82
2021/12/25 00:42:03;;;;;;;8.00;3.13;;;0.10;99.90;;;;;;5050475;28;20131;-82
2021/12/25 00:44:29;;;;;;;4.10;1.67;;;0.10;99.90;;;;;;5019579;28;20044;-82
2021/12/25 00:46:57;;;;;;;7.78;2.20;;;0.10;99.90;;;;;;5034180;28;20555;-82
2021/12/25 00:49:25;;;;;;;5.78;2.40;;;0.10;99.90;;;;;;5050320;28;20059;-82
2021/12/25 00:51:51;;;;;;;6.55;3.60;;;0.00;99.90;;;;;;5067257;28;20106;-82
2021/12/25 00:54:17;;;;;;;5.72;1.70;;;0.00;99.90;;;;;;5051702;28;20091;-81
2021/12/25 00:56:44;;;;;;;3.90;1.80;;;0.00;99.90;;;;;;5014045;28;20045;-82
2021/12/25 00:59:10;;;;;;;5.65;1.80;;;0.00;99.90;;;;;;5014835;28;20338;-82
2021/12/25 01:01:37;;;;;;;4.95;1.85;;;0.00;99.90;;;;;;5015013;28;20477;-82
2021/12/25 01:04:05;;;;;;;6.85;1.92;;;0.00;99.90;;;;;;5033006;28;20056;-82
2021/12/25 01:06:31;;;;;;;4.28;1.30;;;-0.10;99.90;;;;;;5036702;28;20467;-82
2021/12/25 01:08:58;;;;;;;4.32;1.40;;;-0.20;99.90;;;;;;5012251;28;20045;-82
2021/12/25 01:11:27;;;;;;;4.90;1.70;;;-0.20;99.90;;;;;;5023827;28;20041;-83
2021/12/25 01:14:02;;;;;;;10.95;1.90;;;-0.30;99.90;;;;;;5056059;28;20045;-85
2021/12/25 01:22:59;;;;;;;2.80;1.40;;;-0.50;99.90;;;;;;4967715;28;20042;-82
2021/12/25 01:36:33;;;;;;;6.10;1.92;;;-0.80;99.90;;;;;;5028246;28;20043;-81
2021/12/25 01:50:12;;;;;;;4.53;1.42;;;-1.00;99.90;;;;;;5012859;28;20448;-81
2021/12/25 01:52:38;;;;;;;5.28;1.30;;;-0.90;99.90;;;;;;5015764;28;20048;-81
2021/12/25 01:55:11;;;;;;;4.53;1.38;;;-1.10;99.90;;;;;;5018811;28;20083;-82
2021/12/25 01:57:37;;;;;;;8.27;1.60;;;-1.10;99.90;;;;;;5036876;28;20568;-80
2021/12/25 02:00:12;;;;;;;4.65;2.08;;;-1.10;99.90;;;;;;5020904;28;20051;-80
2021/12/25 02:02:43;;;;;;;5.22;1.42;;;-1.20;99.90;;;;;;5054058;28;20386;-81
2021/12/25 02:05:10;;;;;;;6.28;1.77;;;-1.10;99.90;;;;;;5068230;28;20052;-81
2021/12/25 02:07:37;;;;;;;5.07;1.92;;;-1.20;99.90;;;;;;5034668;28;20119;-81
2021/12/25 02:10:05;;;;;;;5.65;1.75;;;-1.30;99.90;;;;;;5018935;28;20068;-81
2021/12/25 02:12:33;;;;;;;5.35;1.88;;;-1.20;99.90;;;;;;5034742;28;20102;-81
2021/12/25 02:15:08;;;;;;;5.90;2.22;;;-1.30;99.90;;;;;;5019314;28;20489;-81
2021/12/25 02:21:07;;;;;;;5.53;1.83;;;-1.30;99.90;;;;;;5034656;28;20408;-81
2021/12/25 02:23:36;;;;;;;3.55;1.08;;;-1.40;99.90;;;;;;5049304;28;20076;-81
2021/12/25 02:26:03;;;;;;;4.20;1.17;;;-1.40;99.90;;;;;;5033154;28;20040;-81
2021/12/25 02:28:29;;;;;;;7.53;1.38;;;-1.40;99.90;;;;;;5044437;28;20101;-81
2021/12/25 02:30:59;;;;;;;4.57;1.63;;;-1.40;99.90;;;;;;5016014;28;20052;-82
2021/12/25 02:33:27;;;;;;;2.67;1.08;;;-1.50;99.90;;;;;;5035631;28;20094;-81
2021/12/25 02:35:54;;;;;;;2.22;1.10;;;-1.50;99.90;;;;;;5024988;28;20029;-82
2021/12/25 02:38:21;;;;;;;2.60;1.17;;;-1.50;99.90;;;;;;5036464;28;20132;-81
2021/12/25 02:40:48;;;;;;;4.18;1.30;;;-1.60;99.90;;;;;;5035473;28;20056;-82
2021/12/25 02:43:15;;;;;;;3.50;1.00;;;-1.60;99.90;;;;;;5053071;28;20045;-82
2021/12/25 02:45:41;;;;;;;2.30;1.13;;;-1.60;99.90;;;;;;5052619;28;20072;-81
2021/12/25 02:48:10;;;;;;;3.88;1.63;;;-1.70;99.90;;;;;;5036297;28;20497;-82
2021/12/25 02:50:38;;;;;;;4.10;1.20;;;-1.70;99.90;;;;;;5040866;28;20057;-82
2021/12/25 02:53:07;;;;;;;6.18;1.95;;;-1.70;99.90;;;;;;5031701;28;20048;-82
2021/12/25 02:55:37;;;;;;;4.53;1.38;;;-1.80;99.90;;;;;;5033727;28;20078;-82
2021/12/25 02:58:03;;;;;;;2.92;1.10;;;-1.80;99.90;;;;;;5049762;28;20044;-82
2021/12/25 03:00:46;;;;;;;5.47;1.60;;;-1.80;99.90;;;;;;5020191;28;20044;-82
2021/12/25 03:03:12;;;;;;;5.28;1.58;;;-1.80;99.90;;;;;;5043135;28;20044;-81
2021/12/25 03:05:39;;;;;;;4.25;1.40;;;-1.80;99.90;;;;;;5050535;28;20060;-81
2021/12/25 03:08:11;;;;;;;6.88;1.90;;;-1.90;99.90;;;;;;5023084;28;20052;-81
2021/12/25 03:10:47;;;;;;;3.08;1.58;;;-1.90;99.90;;;;;;5016580;28;20045;-81
2021/12/25 03:15:46;;;;;;;7.50;1.75;;;-2.00;99.90;;;;;;5051260;28;20054;-81
2021/12/25 03:18:21;;;;;;;2.80;1.42;;;-2.00;99.90;;;;;;5062067;28;20040;-82
2021/12/25 03:20:48;;;;;;;3.47;1.17;;;-2.00;99.90;;;;;;5042579;28;20087;-81
2021/12/25 03:23:17;;;;;;;3.30;1.30;;;-2.10;99.90;;;;;;5033925;28;20518;-81
2021/12/25 03:25:45;;;;;;;2.63;1.20;;;-2.00;99.90;;;;;;5067795;28;20075;-80
2021/12/25 03:28:12;;;;;;;2.20;1.38;;;-2.10;99.90;;;;;;5048018;28;20147;-80
2021/12/25 03:30:39;;;;;;;2.92;1.42;;;-2.10;99.90;;;;;;5048256;28;20040;-80
2021/12/25 03:33:10;;;;;;;3.17;1.27;;;-2.20;99.90;;;;;;5022389;28;20044;-80
2021/12/25 03:35:36;;;;;;;5.03;1.27;;;-2.20;99.90;;;;;;5050265;28;20040;-80
2021/12/25 03:38:06;;;;;;;4.80;1.55;;;-2.20;99.90;;;;;;5049725;28;20572;-81
2021/12/25 03:40:33;;;;;;;1.98;1.38;;;-2.20;99.90;;;;;;5033592;28;20573;-80
2021/12/25 03:43:00;;;;;;;2.05;1.25;;;-2.30;99.90;;;;;;5066001;28;20045;-80
2021/12/25 03:45:30;;;;;;;2.53;1.20;;;-2.30;99.90;;;;;;5017697;28;20519;-81
2021/12/25 03:48:08;;;;;;;3.13;1.15;;;-2.30;99.90;;;;;;5017036;28;20404;-80
2021/12/25 03:53:37;;;;;;;3.58;1.30;;;-2.40;99.90;;;;;;5023886;28;20040;-80
2021/12/25 03:58:52;;;;;;;1.30;0.90;;;-2.40;99.90;;;;;;5064761;28;20153;-80
2021/12/25 04:04:24;;;;;;;2.97;1.08;;;-2.40;99.90;;;;;;5033434;28;20151;-81
2021/12/25 04:07:16;;;;;;;2.83;1.23;;;-2.50;99.90;;;;;;5050802;28;20202;-80
2021/12/25 04:09:42;;;;;;;1.70;0.90;;;-2.50;99.90;;;;;;5043386;28;20059;-80
2021/12/25 04:12:11;;;;;;;3.45;1.20;;;-2.50;99.90;;;;;;5043740;28;20420;-80
2021/12/25 04:14:40;;;;;;;3.40;1.70;;;-2.50;99.90;;;;;;5018236;28;20098;-81
2021/12/25 04:17:09;;;;;;;1.92;1.10;;;-2.60;99.90;;;;;;5062230;28;20078;-81
2021/12/25 04:19:37;;;;;;;2.15;1.05;;;-2.60;99.90;;;;;;5048341;28;20052;-80
2021/12/25 04:22:10;;;;;;;2.58;1.10;;;-2.70;99.90;;;;;;5032467;28;20102;-81
2021/12/25 04:24:40;;;;;;;2.75;1.05;;;-2.60;99.90;;;;;;5040706;28;20075;-80
2021/12/25 04:27:11;;;;;;;2.60;1.10;;;-2.70;99.90;;;;;;5030821;28;20503;-81
2021/12/25 04:30:03;;;;;;;1.65;1.00;;;-2.70;99.90;;;;;;5030443;28;20045;-81
2021/12/25 04:49:42;;;;;;;3.67;1.10;;;-2.80;99.90;;;;;;5056051;28;20048;-80
2021/12/25 05:03:28;;;;;;;5.75;1.75;;;-2.90;99.90;;;;;;5055429;28;20070;-80
2021/12/25 05:06:14;;;;;;;5.97;1.25;;;-2.90;99.90;;;;;;5031235;28;20480;-81
2021/12/25 05:08:42;;;;;;;5.22;1.15;;;-2.90;99.90;;;;;;5050210;28;20067;-81
2021/12/25 05:11:10;;;;;;;2.85;1.17;;;-2.90;99.90;;;;;;5046003;28;20158;-81
2021/12/25 05:13:36;;;;;;;2.58;1.20;;;-3.00;99.90;;;;;;5006300;28;20125;-80
2021/12/25 05:16:03;;;;;;;6.50;1.30;;;-3.00;99.90;;;;;;5015151;28;20040;-80
2021/12/25 05:18:30;;;;;;;3.42;1.20;;;-3.00;99.90;;;;;;5016582;28;20504;-80
2021/12/25 05:20:56;;;;;;;4.90;1.10;;;-3.00;99.90;;;;;;5011107;28;20048;-80
2021/12/25 05:23:22;;;;;;;3.40;1.10;;;-3.00;99.90;;;;;;5036480;28;20096;-80
2021/12/25 05:25:49;;;;;;;4.10;1.30;;;-3.10;99.90;;;;;;5046413;28;20045;-79
2021/12/25 05:28:23;;;;;;;2.35;1.13;;;-3.00;99.90;;;;;;5056671;28;20665;-81
2021/12/25 05:30:52;;;;;;;5.13;1.20;;;-3.10;99.90;;;;;;5032483;28;20072;-80
2021/12/25 05:33:37;;;;;;;2.55;1.08;;;-3.10;99.90;;;;;;5046921;28;20041;-81
2021/12/25 05:36:13;;;;;;;3.40;1.50;;;-3.10;99.90;;;;;;5014186;28;20074;-80
2021/12/25 05:39:00;;;;;;;2.28;1.23;;;-3.10;99.90;;;;;;5038497;28;20105;-81
2021/12/25 05:41:31;;;;;;;3.80;1.30;;;-3.10;99.90;;;;;;5033942;28;20496;-80
2021/12/25 05:43:59;;;;;;;2.13;1.20;;;-3.10;99.90;;;;;;5032233;28;20449;-80
2021/12/25 05:46:48;;;;;;;4.25;1.30;;;-3.20;99.90;;;;;;5047737;28;20045;-80
2021/12/25 05:49:16;;;;;;;2.80;1.50;;;-3.10;99.90;;;;;;5033659;28;20056;-80
2021/12/25 05:52:03;;;;;;;3.00;1.30;;;-3.20;99.90;;;;;;5054591;28;20060;-80
2021/12/25 05:54:43;;;;;;;3.00;1.42;;;-3.20;99.90;;;;;;5020925;28;20048;-81
2021/12/25 05:57:27;;;;;;;2.30;1.15;;;-3.20;99.90;;;;;;5047935;28;20053;-81
2021/12/25 06:00:23;;;;;;;3.78;1.33;;;-3.20;99.90;;;;;;5037693;28;20127;-81
2021/12/25 06:02:50;;;;;;;7.97;1.85;;;-3.20;99.90;;;;;;5053577;28;20055;-80
2021/12/25 06:05:27;;;;;;;2.10;1.08;;;-3.20;99.90;;;;;;5045109;28;20059;-80
2021/12/25 06:07:53;;;;;;;2.50;0.98;;;-3.20;99.90;;;;;;5036747;28;20048;-80
2021/12/25 06:10:19;;;;;;;2.60;0.90;;;-3.20;99.90;;;;;;5052205;28;20405;-81
2021/12/25 06:12:48;;;;;;;1.63;0.95;;;-3.30;99.90;;;;;;5049028;28;20209;-80
2021/12/25 06:15:18;;;;;;;3.80;1.20;;;-3.20;99.90;;;;;;5026319;28;20523;-81
2021/12/25 06:18:09;;;;;;;2.50;1.20;;;-3.30;99.90;;;;;;5020064;28;20416;-81
2021/12/25 06:20:41;;;;;;;2.70;1.67;;;-3.30;99.90;;;;;;5047475;28;20123;-81
2021/12/25 06:23:34;;;;;;;4.00;1.05;;;-3.30;99.90;;;;;;5034046;28;20055;-81
2021/12/25 06:26:18;;;;;;;1.23;0.80;;;-3.30;99.90;;;;;;5036577;28;20064;-83
2021/12/25 06:29:06;;;;;;;1.80;1.27;;;-3.30;99.90;;;;;;5020495;28;20048;-79
2021/12/25 06:31:52;;;;;;;1.52;0.80;;;-3.30;99.90;;;;;;5056986;28;20700;-80
2021/12/25 06:34:42;;;;;;;0.82;0.70;;;-3.30;99.90;;;;;;5047247;28;20072;-79
2021/12/25 06:37:18;;;;;;;1.85;1.23;;;-3.30;99.90;;;;;;5040564;28;20055;-79
2021/12/25 06:40:11;;;;;;;2.17;1.00;;;-3.30;99.90;;;;;;5033355;28;20044;-77
2021/12/25 06:42:39;;;;;;;3.67;0.80;;;-3.30;99.90;;;;;;5036514;28;20517;-81
2021/12/25 06:45:06;;;;;;;1.58;0.70;;;-3.30;99.90;;;;;;5020239;28;20049;-79
2021/12/25 06:47:32;;;;;;;1.55;0.98;;;-3.40;99.90;;;;;;5034645;28;20127;-79
2021/12/25 06:50:04;;;;;;;1.05;0.80;;;-3.40;99.90;;;;;;5036139;28;20114;-80
2021/12/25 06:52:57;;;;;;;2.17;0.85;;;-3.30;99.90;;;;;;5032821;28;20041;-81
2021/12/25 06:55:42;;;;;;;3.45;1.13;;;-3.40;99.90;;;;;;5061781;28;20514;-79
2021/12/25 06:58:21;;;;;;;5.25;0.85;;;-3.40;99.90;;;;;;5025938;28;20143;-79
2021/12/25 07:00:48;;;;;;;1.08;0.90;;;-3.50;99.90;;;;;;5000500;28;20051;-79
2021/12/25 07:03:14;;;;;;;0.80;0.60;;;-3.40;99.90;;;;;;5038638;28;20049;-80
2021/12/25 07:05:59;;;;;;;1.00;0.50;;;-3.50;99.90;;;;;;5042769;28;20080;-79
2021/12/25 07:08:36;;;;;;;1.98;0.80;;;-3.50;99.90;;;;;;5011173;28;20049;-80
2021/12/25 07:11:18;;;;;;;1.55;0.73;;;-3.40;99.90;;;;;;5064268;28;20520;-79
2021/12/25 07:14:13;;;;;;;2.15;0.85;;;-3.50;99.90;;;;;;5009094;28;20051;-77
2021/12/25 07:16:48;;;;;;;2.88;0.80;;;-3.50;99.90;;;;;;5034775;28;20494;-80
2021/12/25 07:19:32;;;;;;;2.05;1.15;;;-3.50;99.90;;;;;;5041136;28;20047;-78
2021/12/25 07:22:17;;;;;;;5.85;2.38;;;-3.50;99.90;;;;;;5051855;28;20411;-77
2021/12/25 07:25:03;;;;;;;6.50;3.83;;;-3.60;99.90;;;;;;5040582;28;20185;-78
2021/12/25 07:27:49;;;;;;;1.35;0.90;;;-3.50;99.90;;;;;;5067736;28;20048;-77
2021/12/25 07:30:15;;;;;;;3.78;2.15;;;-3.40;99.90;;;;;;5068670;28;20101;-76
2021/12/25 07:32:41;;;;;;;0.82;0.75;;;-3.50;99.90;;;;;;5018753;28;20053;-77
2021/12/25 07:35:08;;;;;;;2.47;1.10;;;-3.50;99.90;;;;;;5050640;28;20403;-78
2021/12/25 07:37:34;;;;;;;3.47;1.40;;;-3.60;99.90;;;;;;5020511;28;20048;-77
2021/12/25 07:40:05;;;;;;;7.57;3.70;;;-3.60;99.90;;;;;;5035186;28;20646;-79
2021/12/25 07:42:31;;;;;;;2.28;1.13;;;-3.60;99.90;;;;;;5034341;28;20052;-79
2021/12/25 07:45:10;;;;;;;1.75;0.90;;;-3.60;99.90;;;;;;5026547;28;20076;-79
2021/12/25 07:47:45;;;;;;;1.83;0.80;;;-3.60;99.90;;;;;;5048040;28;20049;-78
2021/12/25 07:50:13;;;;;;;4.60;2.15;;;-3.60;99.90;;;;;;5064910;28;20056;-77
2021/12/25 07:52:40;;;;;;;8.38;4.38;;;-3.60;99.90;;;;;;5047010;28;20044;-78
2021/12/25 07:55:07;;;;;;;3.90;2.03;;;-3.60;99.90;;;;;;5031616;28;20541;-79
2021/12/25 07:57:34;;;;;;;21.48;12.20;;;-3.70;99.90;;;;;;5016097;28;20194;-79
2021/12/25 08:00:00;;;;;;;4.35;1.40;;;-3.60;99.90;;;;;;5057749;28;20040;-79
2021/12/25 08:02:26;;;;;;;12.05;6.90;;;-3.60;99.90;;;;;;5021014;28;20630;-79
2021/12/25 08:04:52;;;;;;;7.82;4.07;;;-3.60;99.90;;;;;;5030642;28;20117;-83
2021/12/25 08:07:19;;;;;;;3.13;1.00;;;-3.60;99.90;;;;;;5018618;28;20066;-77
2021/12/25 08:09:45;;;;;;;11.02;5.97;;;-3.60;99.90;;;;;;5034615;28;20141;-78
2021/12/25 08:12:11;;;;;;;9.05;1.60;;;-3.60;99.90;;;;;;4998602;28;20044;-79
2021/12/25 08:14:38;;;;;;;3.67;1.88;;;-3.60;99.90;;;;;;5039256;28;20040;-78
2021/12/25 08:17:05;;;;;;;0.98;0.70;;;-3.60;99.90;;;;;;5030903;28;20045;-79
2021/12/25 08:19:50;;;;;;;1.38;0.70;;;-3.60;99.90;;;;;;5050142;28;20580;-78
2021/12/25 08:22:35;;;;;;;1.85;0.80;;;-3.60;99.90;;;;;;5064520;28;20598;-78
2021/12/25 08:25:20;;;;;;;2.42;1.17;;;-3.60;99.90;;;;;;5044591;28;20052;-79
2021/12/25 08:28:05;;;;;;;1.85;1.00;;;-3.60;99.90;;;;;;5067639;28;20578;-79
2021/12/25 08:30:49;;;;;;;3.17;0.90;;;-3.60;99.90;;;;;;5036617;28;20055;-78
2021/12/25 08:33:28;;;;;;;3.80;1.50;;;-3.60;99.90;;;;;;5025119;28;20032;-78
2021/12/25 08:36:13;;;;;;;10.77;5.10;;;-3.50;99.90;;;;;;5053777;28;20358;-79
2021/12/25 08:38:39;;;;;;;9.93;5.78;;;-3.50;99.90;;;;;;5049322;28;20078;-79
2021/12/25 08:41:05;;;;;;;7.97;4.03;;;-3.50;99.90;;;;;;5064395;28;20055;-79
2021/12/25 08:43:35;;;;;;;2.05;1.05;;;-3.30;99.90;;;;;;5061566;28;20779;-78
2021/12/25 08:46:12;;;;;;;13.05;7.25;;;-3.20;99.90;;;;;;5047317;28;20682;-81
2021/12/25 08:48:38;;;;;;;2.85;1.20;;;-3.10;99.90;;;;;;5050316;28;20067;-80
2021/12/25 08:51:04;;;;;;;2.17;0.88;;;-2.90;99.90;;;;;;5025387;28;20123;-79
2021/12/25 08:53:31;;;;;;;1.55;1.35;;;-2.80;99.90;;;;;;5030906;28;20444;-80
2021/12/25 08:55:57;;;;;;;1.40;0.88;;;-2.50;99.90;;;;;;5030569;28;20134;-80
2021/12/25 08:58:26;;;;;;;8.57;4.43;;;-2.40;99.90;;;;;;5018704;28;20044;-79
2021/12/25 09:00:57;;;;;;;19.02;11.55;;;-2.30;99.90;;;;;;5046793;28;20094;-78
2021/12/25 09:03:26;;;;;;;1.50;0.90;;;-2.10;99.90;;;;;;5050308;28;20044;-78
2021/12/25 09:06:02;;;;;;;5.57;3.00;;;-1.90;99.90;;;;;;5017236;28;20051;-78
2021/12/25 09:08:30;;;;;;;14.73;8.13;;;-1.80;99.90;;;;;;5046087;28;20041;-78
2021/12/25 09:10:56;;;;;;;9.80;4.93;;;-1.70;99.90;;;;;;5033207;28;20048;-79
2021/12/25 09:13:22;;;;;;;11.93;5.03;;;-1.70;99.90;;;;;;5050264;28;20515;-80
2021/12/25 09:15:49;;;;;;;6.13;3.20;;;-1.80;99.90;;;;;;5055520;28;20221;-79
2021/12/25 09:18:15;;;;;;;10.07;5.90;;;-1.80;99.90;;;;;;5046457;28;20045;-80
2021/12/25 09:20:41;;;;;;;2.10;0.90;;;-1.90;99.90;;;;;;5033625;28;20055;-80
2021/12/25 09:23:07;;;;;;;0.93;0.68;;;-2.00;99.90;;;;;;5016409;28;20047;-78
2021/12/25 09:25:34;;;;;;;13.32;7.28;;;-1.90;99.90;;;;;;5030412;28;20114;-79
2021/12/25 09:28:00;;;;;;;5.00;1.63;;;-1.80;99.90;;;;;;5029757;28;20120;-80
2021/12/25 09:30:27;;;;;;;4.65;2.25;;;-2.00;99.90;;;;;;5022955;28;20124;-79
2021/12/25 09:32:53;;;;;;;19.73;10.60;;;-2.00;99.90;;;;;;5054096;28;20040;-80
2021/12/25 09:35:20;;;;;;;16.95;8.30;;;-2.00;99.90;;;;;;5037300;28;20157;-81
2021/12/25 09:37:46;;;;;;;10.57;6.30;;;-2.00;99.90;;;;;;5053290;28;20051;-79
2021/12/25 09:40:12;;;;;;;2.88;1.35;;;-1.80;99.90;;;;;;5039727;28;20051;-80
2021/12/25 09:42:40;;;;;;;5.15;2.55;;;-1.70;99.90;;;;;;5057202;28;20503;-80
2021/12/25 09:45:09;;;;;;;2.80;1.50;;;-1.60;99.90;;;;;;5073401;28;20059;-80
2021/12/25 09:47:35;;;;;;;1.65;0.90;;;-1.50;99.90;;;;;;5037075;28;20052;-81
2021/12/25 09:50:02;;;;;;;3.95;1.15;;;-1.30;99.90;;;;;;5033369;28;20065;-78
2021/12/25 09:52:28;;;;;;;6.57;3.33;;;-1.30;99.90;;;;;;5033721;28;20223;-79
2021/12/25 09:54:55;;;;;;;3.05;1.48;;;-1.40;99.90;;;;;;5017564;28;20048;-80
2021/12/25 09:57:21;;;;;;;2.75;1.15;;;-1.60;99.90;;;;;;5017274;28;20075;-80
2021/12/25 09:59:48;;;;;;;3.75;1.45;;;-1.60;99.90;;;;;;5033843;28;20044;-80
2021/12/25 10:02:15;;;;;;;9.38;4.28;;;-1.20;99.90;;;;;;5037079;28;20049;-80
2021/12/25 10:04:45;;;;;;;11.15;6.55;;;-0.80;99.90;;;;;;5020860;28;20044;-80
2021/12/25 10:07:25;;;;;;;5.63;1.58;;;-0.60;99.90;;;;;;5036823;28;20048;-80
2021/12/25 10:10:06;;;;;;;9.05;3.17;;;-0.60;99.90;;;;;;5034685;28;20386;-79
2021/12/25 10:12:42;;;;;;;2.33;1.35;;;-0.70;99.90;;;;;;5033642;28;20440;-80
2021/12/25 10:15:28;;;;;;;4.30;1.73;;;-0.70;99.90;;;;;;5033449;28;20041;-78
2021/12/25 10:17:57;;;;;;;3.75;1.38;;;-0.80;99.90;;;;;;5035749;28;20465;-83
2021/12/25 10:20:27;;;;;;;4.07;2.40;;;-0.70;99.90;;;;;;5073032;28;20055;-79
2021/12/25 10:22:57;;;;;;;3.63;1.45;;;-0.60;99.90;;;;;;5038544;28;20049;-78
2021/12/25 10:25:24;;;;;;;7.35;2.75;;;-0.50;99.90;;;;;;5034386;28;20948;-81
2021/12/25 10:27:57;;;;;;;2.55;0.90;;;-0.10;99.90;;;;;;5036047;28;20397;-81
2021/12/25 10:30:24;;;;;;;6.30;3.47;;;0.10;99.90;;;;;;5051115;28;20045;-81
2021/12/25 10:32:51;;;;;;;6.07;2.38;;;0.30;99.90;;;;;;5029937;28;20546;-80
2021/12/25 10:35:27;;;;;;;16.98;9.10;;;0.30;99.90;;;;;;5019822;28;20060;-78
2021/12/25 10:37:55;;;;;;;2.17;1.27;;;0.10;99.90;;;;;;5052809;28;20048;-78
2021/12/25 10:40:26;;;;;;;8.73;3.70;;;0.00;99.90;;;;;;5024046;28;20552;-78
2021/12/25 10:42:55;;;;;;;7.53;3.70;;;-0.10;99.90;;;;;;5022269;28;20113;-78
2021/12/25 10:45:22;;;;;;;7.00;2.95;;;-0.20;99.90;;;;;;5036096;28;20135;-79
2021/12/25 10:48:01;;;;;;;4.35;1.42;;;-0.20;99.90;;;;;;5035983;28;20117;-78
2021/12/25 10:50:35;;;;;;;57.42;37.55;;;-0.20;99.90;;;;;;5033256;28;20057;-76
2021/12/25 10:53:05;;;;;;;8.60;3.63;;;0.10;99.90;;;;;;5021336;28;20045;-81
2021/12/25 10:55:31;;;;;;;7.25;4.28;;;0.30;99.90;;;;;;5018182;28;20041;-79
2021/12/25 10:57:59;;;;;;;4.75;2.30;;;0.90;99.90;;;;;;5036586;28;20074;-84
2021/12/25 11:00:33;;;;;;;2.78;1.15;;;1.30;99.90;;;;;;5035985;28;20060;-82
2021/12/25 11:03:02;;;;;;;1.05;0.75;;;1.60;99.90;;;;;;5052697;28;20508;-84
2021/12/25 11:05:31;;;;;;;11.20;6.40;;;1.70;99.90;;;;;;5067628;28;20133;-81
2021/12/25 11:08:18;;;;;;;9.82;4.05;;;1.80;99.00;;;;;;5043439;28;20044;-82
2021/12/25 11:10:58;;;;;;;6.28;3.00;;;1.80;85.90;;;;;;5046150;28;20178;-83
2021/12/25 11:13:32;;;;;;;6.28;1.45;;;1.40;91.20;;;;;;5069153;28;20040;-82
2021/12/25 11:16:20;;;;;;;1.25;0.80;;;1.60;95.00;;;;;;5069045;28;20353;-82
2021/12/25 11:19:05;;;;;;;2.60;1.55;;;1.20;85.70;;;;;;5079235;28;20048;-81
2021/12/25 11:21:44;;;;;;;5.70;1.50;;;1.20;95.10;;;;;;5052135;28;20048;-81
2021/12/25 11:24:20;;;;;;;1.10;0.85;;;1.10;99.90;;;;;;5032167;28;20045;-83
2021/12/25 11:27:00;;;;;;;2.65;0.90;;;1.00;97.60;;;;;;5033762;28;20122;-81
2021/12/25 11:29:29;;;;;;;2.28;0.80;;;0.90;95.50;;;;;;5066999;28;20711;-84
2021/12/25 11:31:56;;;;;;;3.70;0.93;;;0.90;99.90;;;;;;5043138;28;20507;-83
2021/12/25 11:34:24;;;;;;;2.38;1.17;;;0.80;99.90;;;;;;5065967;28;20051;-81
2021/12/25 11:36:53;;;;;;;5.05;1.90;;;0.70;99.90;;;;;;5067915;28;20056;-81
2021/12/25 11:39:21;;;;;;;3.47;1.80;;;0.60;99.90;;;;;;5050391;28;20119;-82
2021/12/25 11:41:49;;;;;;;3.95;1.08;;;0.90;99.90;;;;;;5033686;28;20071;-81
2021/12/25 11:44:52;;;;;;;1.58;0.93;;;0.90;99.90;;;;;;5036120;28;20044;-82
2021/12/25 11:47:42;;;;;;;3.72;0.95;;;0.80;99.90;;;;;;4999318;28;20079;-83
2021/12/25 11:50:20;;;;;;;2.15;1.17;;;0.90;99.90;;;;;;5064089;28;20415;-84
2021/12/25 11:53:38;;;;;;;4.15;1.63;;;1.70;98.30;;;;;;5021993;28;20117;-81
2021/12/25 11:58:43;;;;;;;4.40;1.27;;;1.90;95.20;;;;;;5066143;28;20047;-81
2021/12/25 12:01:29;;;;;;;4.88;2.33;;;2.00;90.10;;;;;;5040580;28;20054;-83
2021/12/25 12:04:21;;;;;;;5.57;2.72;;;2.00;94.20;;;;;;5030218;28;20040;-82
2021/12/25 12:06:56;;;;;;;;;;;2.20;88.30;;;;;;5043258;28;20040;-82
2021/12/25 12:09:45;;;;;;;4.18;1.73;;;2.10;81.20;;;;;;5045323;28;19939;-80
2021/12/25 12:12:30;;;;;;;10.02;5.78;;;2.40;95.80;;;;;;5045521;28;20523;-80
2021/12/25 12:15:17;;;;;;;2.55;1.17;;;2.60;82.10;;;;;;5018090;28;20050;-80
2021/12/25 12:18:36;;;;;;;6.03;1.85;;;2.90;90.00;;;;;;5048717;28;20037;-83
2021/12/25 12:21:09;;;;;;;4.40;1.30;;;2.80;65.80;;;;;;5003086;28;20071;-80
2021/12/25 12:26:13;;;;;;;5.93;2.75;;;3.40;69.00;;;;;;5052792;28;20045;-81
2021/12/25 12:28:49;;;;;;;2.58;1.13;;;3.30;71.30;;;;;;5085971;28;20056;-81
2021/12/25 12:31:41;;;;;;;2.63;1.50;;;3.20;62.90;;;;;;5064756;28;20041;-81
2021/12/25 12:34:39;;;;;;;9.35;4.05;;;3.40;63.30;;;;;;5047551;28;20464;-81
2021/12/25 12:37:14;;;;;;;2.33;1.00;;;3.40;61.00;;;;;;5029940;28;20528;-80
2021/12/25 12:39:44;;;;;;;6.35;1.67;;;3.40;62.40;;;;;;5065185;28;20091;-80
2021/12/25 12:42:13;;;;;;;3.42;1.00;;;2.80;62.70;;;;;;5046796;28;20040;-81
2021/12/25 12:44:40;;;;;;;3.70;1.10;;;2.60;65.30;;;;;;5031677;28;20037;-80
2021/12/25 12:47:14;;;;;;;9.02;4.60;;;2.30;65.70;;;;;;5025627;28;20053;-79
2021/12/25 12:49:53;;;;;;;12.30;7.43;;;1.80;64.90;;;;;;5030578;28;20043;-81
2021/12/25 12:52:20;;;;;;;5.10;1.25;;;1.80;68.10;;;;;;5032778;28;20047;-82
2021/12/25 12:54:53;;;;;;;2.47;1.27;;;1.70;68.40;;;;;;5032697;28;20040;-84
2021/12/25 12:57:22;;;;;;;10.57;6.18;;;2.10;72.80;;;;;;5017170;28;20040;-82
2021/12/25 12:59:54;;;;;;;13.88;8.77;;;2.50;99.90;;;;;;5064991;28;20040;-82
2021/12/25 13:02:23;;;;;;;2.75;1.10;;;2.90;99.90;;;;;;5036908;28;20447;-82
2021/12/25 13:05:00;;;;;;;2.80;1.20;;;3.50;90.20;;;;;;5014707;28;20044;-80
2021/12/25 13:07:30;;;;;;;2.38;1.40;;;3.70;66.30;;;;;;5015692;28;20128;-80
2021/12/25 13:10:10;;;;;;;3.47;1.27;;;4.40;66.30;;;;;;5058146;28;20086;-79
2021/12/25 13:12:48;;;;;;;4.20;1.38;;;4.50;59.80;;;;;;5030814;28;20044;-79
2021/12/25 13:15:27;;;;;;;4.13;1.20;;;4.20;61.10;;;;;;5030034;28;20041;-81
2021/12/25 13:17:57;;;;;;;4.82;1.48;;;4.00;61.60;;;;;;5049070;28;20041;-79
2021/12/25 13:20:39;;;;;;;3.17;1.35;;;3.80;60.60;;;;;;5049338;28;20045;-80
2021/12/25 13:23:20;;;;;;;2.05;1.08;;;3.90;60.60;;;;;;5080430;28;20080;-79
2021/12/25 13:25:53;;;;;;;2.97;1.20;;;4.30;61.10;;;;;;5066401;28;20503;-79
2021/12/25 13:28:22;;;;;;;5.00;2.20;;;4.80;59.40;;;;;;5048344;28;20417;-78
2021/12/25 13:30:52;;;;;;;2.40;1.08;;;5.10;59.50;;;;;;5027005;28;20445;-77
2021/12/25 13:33:22;;;;;;;2.83;0.93;;;5.40;56.90;;;;;;5054297;28;20053;-79
2021/12/25 13:36:03;;;;;;;3.60;1.40;;;5.00;55.60;;;;;;5040738;28;20037;-78
2021/12/25 13:38:53;;;;;;;48.10;32.75;;;4.60;53.20;;;;;;5022895;28;20044;-81
2021/12/25 13:41:36;;;;;;;14.75;9.23;;;5.00;57.80;;;;;;5049012;28;20064;-80
2021/12/25 13:44:14;;;;;;;1.58;1.10;;;5.50;56.80;;;;;;5045909;28;22016;-79
2021/12/25 13:46:57;;;;;;;5.05;2.13;;;5.20;53.60;;;;;;5041458;28;20044;-80
2021/12/25 13:49:32;;;;;;;22.48;13.93;;;5.30;53.70;;;;;;4998195;28;20535;-79
2021/12/25 13:52:02;;;;;;;5.60;1.70;;;5.10;53.80;;;;;;5013551;28;20295;-79
2021/12/25 13:54:29;;;;;;;4.97;1.88;;;5.50;56.40;;;;;;5005356;28;20360;-79
2021/12/25 13:56:56;;;;;;;3.75;1.75;;;5.80;55.90;;;;;;4962775;28;20048;-80
2021/12/25 13:59:23;;;;;;;2.78;1.25;;;5.90;53.90;;;;;;4971665;28;20049;-79
2021/12/25 14:02:18;;;;;;;16.85;9.30;;;6.10;55.10;;;;;;4980758;28;20041;-80
2021/12/25 14:04:47;;;;;;;16.67;9.82;;;5.80;54.40;;;;;;4984210;28;20045;-80
2021/12/25 14:07:18;;;;;;;5.93;2.30;;;5.60;56.10;;;;;;5003792;28;20160;-80
2021/12/25 14:10:03;;;;;;;5.22;1.67;;;5.50;54.80;;;;;;5010550;28;20045;-79
2021/12/25 14:12:30;;;;;;;14.70;8.95;;;5.50;54.60;;;;;;5003014;28;20045;-79
2021/12/25 14:14:58;;;;;;;7.05;4.20;;;5.30;55.50;;;;;;4978220;28;20480;-79
2021/12/25 14:17:24;;;;;;;4.10;1.50;;;5.20;56.10;;;;;;4999500;28;20029;-79
2021/12/25 14:20:05;;;;;;;7.00;3.05;;;5.20;55.30;;;;;;4987258;28;20112;-80
2021/12/25 14:22:31;;;;;;;4.20;1.67;;;5.00;55.30;;;;;;5021191;28;20048;-79
2021/12/25 14:24:57;;;;;;;2.17;1.23;;;4.70;56.70;;;;;;4972242;28;20076;-78
2021/12/25 14:27:24;;;;;;;3.78;1.42;;;3.90;59.90;;;;;;4965890;28;20045;-81
2021/12/25 14:29:50;;;;;;;29.25;17.92;;;3.00;61.20;;;;;;4979328;28;20471;-79
2021/12/25 14:32:27;;;;;;;23.38;14.25;;;2.30;63.40;;;;;;5022739;28;20045;-81
2021/12/25 14:34:55;;;;;;;53.42;39.08;;;1.40;71.50;;;;;;5008788;28;20037;-79
2021/12/25 14:37:34;;;;;;;7.82;3.15;;;0.90;99.90;;;;;;5021149;28;20067;-80